Time;durP1;ratioP1;P1;durP2;ratioP2;P2;SDS_P1;SDS_P2;PMS_P1;PMS_P2;Temp;Humidity;BMP_temperature;BMP_pressure;BME280_temperature;BME280_humidity;BME280_pressure;Samples;Min_cycle;Max_cycle;Signal;HPM_P1;HPM_P2
2022/01/25 00:08:19;;;;;;;52.67;29.48;;;;;;;3.82;98.95;103422.09;5069869;28;20056;-45
2022/01/25 00:15:49;;;;;;;50.83;29.08;;;;;;;3.89;98.87;103426.44;5067806;28;20048;-56
2022/01/25 00:26:35;;;;;;;54.33;30.02;;;;;;;3.70;98.97;103422.88;5073113;28;20499;-56
2022/01/25 00:29:07;;;;;;;54.30;29.52;;;;;;;3.72;98.91;103421.16;5073325;28;20052;-57
2022/01/25 00:31:38;;;;;;;59.80;32.03;;;;;;;3.63;99.44;103428.94;5073232;28;20055;-57
2022/01/25 00:34:07;;;;;;;55.55;29.63;;;;;;;3.61;99.49;103430.63;5073351;28;20454;-57
2022/01/25 00:36:36;;;;;;;57.42;29.60;;;;;;;3.58;99.98;103430.63;5072819;28;20378;-57
2022/01/25 00:39:05;;;;;;;56.70;30.67;;;;;;;3.57;99.88;103418.47;5072819;28;20048;-57
2022/01/25 00:41:35;;;;;;;54.55;29.63;;;;;;;3.62;99.82;103422.84;5070205;28;20534;-57
2022/01/25 00:44:05;;;;;;;56.33;29.98;;;;;;;3.67;99.25;103422.88;5068958;28;20056;-57
2022/01/25 00:46:33;;;;;;;54.10;30.67;;;;;;;3.70;99.02;103425.50;5073189;28;20041;-56
2022/01/25 00:49:02;;;;;;;56.10;31.17;;;;;;;3.70;99.80;103431.56;5072385;28;20049;-54
2022/01/25 00:51:58;;;;;;;56.63;30.88;;;;;;;3.76;99.15;103417.69;5072396;28;20372;-57
2022/01/25 00:54:30;;;;;;;56.38;31.08;;;;;;;3.75;99.46;103417.69;5071396;28;20052;-58
2022/01/25 00:57:00;;;;;;;56.10;30.13;;;;;;;3.73;99.36;103418.53;5072900;28;20048;-56
2022/01/25 00:59:30;;;;;;;56.65;29.88;;;;;;;3.73;98.72;103418.53;5072502;28;20048;-56
2022/01/25 01:02:02;;;;;;;53.83;28.75;;;;;;;3.76;98.62;103409.03;5070341;28;20499;-56
2022/01/25 01:04:32;;;;;;;55.70;28.65;;;;;;;3.72;98.58;103403.81;5068572;28;20052;-56
2022/01/25 01:07:03;;;;;;;54.25;29.63;;;;;;;3.73;98.36;103407.28;5071904;28;20131;-56
2022/01/25 01:09:34;;;;;;;53.67;29.60;;;;;;;3.71;98.45;103406.41;5072583;28;20048;-57
2022/01/25 01:12:10;;;;;;;58.47;30.80;;;;;;;3.71;97.62;103401.22;5072839;28;20041;-56
2022/01/25 01:14:58;;;;;;;59.45;30.60;;;;;;;3.73;97.35;103409.88;5072543;28;20047;-55
2022/01/25 01:29:07;;;;;;;55.50;29.77;;;;;;;3.58;98.15;103417.63;5015848;28;20385;-56
2022/01/25 01:31:51;;;;;;;54.15;29.08;;;;;;;3.54;97.61;103415.00;5067531;28;20044;-58
2022/01/25 01:34:48;;;;;;;56.97;30.75;;;;;;;3.54;97.48;103425.41;5069222;28;20510;-55
2022/01/25 01:40:14;;;;;;;59.47;30.00;;;;;;;3.59;96.84;103414.16;5068613;28;20059;-57
2022/01/25 01:43:02;;;;;;;58.42;29.75;;;;;;;3.54;96.46;103412.41;5071947;28;20059;-57
2022/01/25 01:45:45;;;;;;;52.88;29.95;;;;;;;3.49;95.64;103411.50;5066272;28;20106;-56
2022/01/25 01:48:26;;;;;;;57.85;29.67;;;;;;;3.49;94.71;103408.91;5070869;28;20380;-56
2022/01/25 01:50:58;;;;;;;53.75;28.15;;;;;;;3.50;93.48;103413.22;5072153;28;20056;-57
2022/01/25 01:53:27;;;;;;;55.20;28.35;;;;;;;3.49;93.14;103411.50;5072137;28;20067;-55
2022/01/25 01:55:55;;;;;;;51.67;28.88;;;;;;;3.45;93.85;103407.16;5072079;28;20499;-46
2022/01/25 01:58:23;;;;;;;53.33;29.48;;;;;;;3.50;94.73;103405.41;5069254;28;20048;-43
2022/01/25 02:00:52;;;;;;;51.88;28.58;;;;;;;3.48;94.70;103406.28;5066225;28;20066;-45
2022/01/25 02:03:21;;;;;;;57.45;29.23;;;;;;;3.46;94.20;103401.06;5071286;28;20479;-47
2022/01/25 02:05:50;;;;;;;52.92;28.25;;;;;;;3.45;92.17;103394.13;5072079;28;20704;-48
2022/01/25 02:08:18;;;;;;;59.17;30.05;;;;;;;3.51;92.39;103404.56;5070757;28;20044;-43
2022/01/25 02:10:46;;;;;;;47.55;26.75;;;;;;;3.61;90.09;103391.59;5068341;28;20472;-43
2022/01/25 02:13:15;;;;;;;51.60;26.40;;;;;;;3.61;90.97;103392.47;5070806;28;20129;-43
2022/01/25 02:15:46;;;;;;;53.08;27.10;;;;;;;3.58;91.93;103396.81;5071812;28;20492;-45
2022/01/25 02:23:50;;;;;;;51.97;26.23;;;;;;;3.61;92.64;103405.47;5071199;28;20052;-47
2022/01/25 02:26:18;;;;;;;60.72;30.88;;;;;;;3.60;92.88;103402.88;5071099;28;20055;-48
2022/01/25 02:28:46;;;;;;;55.25;29.23;;;;;;;3.59;92.70;103401.16;5070120;28;20048;-47
2022/01/25 02:31:17;;;;;;;55.30;29.85;;;;;;;3.54;91.32;103399.41;5066276;28;20045;-48
2022/01/25 02:33:46;;;;;;;58.83;29.48;;;;;;;3.54;91.85;103399.41;5070101;28;20122;-51
2022/01/25 02:36:24;;;;;;;57.20;28.67;;;;;;;3.57;92.28;103397.66;5071636;28;20082;-47
2022/01/25 02:38:52;;;;;;;61.53;30.60;;;;;;;3.56;92.18;103399.41;5071445;28;20182;-48
2022/01/25 02:41:21;;;;;;;58.15;28.80;;;;;;;3.54;92.69;103398.50;5071696;28;20057;-49
2022/01/25 02:43:50;;;;;;;59.15;29.25;;;;;;;3.55;92.50;103401.13;5071598;28;20110;-48
2022/01/25 02:48:29;;;;;;;58.33;29.65;;;;;;;3.55;92.97;103393.31;5072557;28;20340;-48
2022/01/25 02:49:08;;;;;;;61.25;31.00;;;;;;;3.52;92.75;103395.03;5071626;28;20044;-46
2022/01/25 02:51:40;;;;;;;57.33;28.52;;;;;;;3.52;93.59;103397.66;5075225;28;20560;-49
2022/01/25 02:54:09;;;;;;;61.42;30.05;;;;;;;3.43;92.82;103390.63;5074890;28;20055;-44
2022/01/25 02:56:39;;;;;;;56.50;27.58;;;;;;;3.49;91.27;103384.59;5073046;28;20510;-46
2022/01/25 02:59:08;;;;;;;57.08;29.05;;;;;;;3.47;91.96;103391.53;5070518;28;20056;-44
2022/01/25 03:01:37;;;;;;;56.95;28.13;;;;;;;3.48;91.67;103385.47;5073134;28;20045;-47
2022/01/25 03:04:07;;;;;;;59.22;28.65;;;;;;;3.48;90.28;103381.13;5075052;28;20056;-48
2022/01/25 03:06:36;;;;;;;60.05;29.80;;;;;;;3.49;90.83;103374.19;5073589;28;20048;-46
2022/01/25 03:09:07;;;;;;;58.53;29.95;;;;;;;3.49;89.81;103375.06;5074981;28;20048;-47
2022/01/25 03:11:35;;;;;;;56.45;28.63;;;;;;;3.58;88.93;103378.59;5075232;28;20045;-44
2022/01/25 03:14:08;;;;;;;55.80;27.10;;;;;;;3.52;90.41;103374.22;5075123;28;20044;-47
2022/01/25 03:16:41;;;;;;;57.50;29.15;;;;;;;3.55;89.87;103379.44;5074225;28;20507;-47
2022/01/25 03:21:54;;;;;;;61.45;30.55;;;;;;;3.53;90.15;103374.22;5073160;28;20052;-46
2022/01/25 03:24:24;;;;;;;61.95;29.83;;;;;;;3.51;90.99;103372.47;5074322;28;20056;-45
2022/01/25 03:26:52;;;;;;;64.97;30.35;;;;;;;3.49;91.05;103369.88;5073950;28;20552;-47
2022/01/25 03:29:20;;;;;;;60.25;29.80;;;;;;;3.45;91.63;103368.13;5070677;28;20055;-45
2022/01/25 03:31:48;;;;;;;59.13;28.67;;;;;;;3.47;91.35;103370.72;5070628;28;20070;-46
2022/01/25 03:34:16;;;;;;;59.90;28.50;;;;;;;3.47;91.78;103370.72;5074492;28;20110;-45
2022/01/25 03:36:44;;;;;;;62.88;30.17;;;;;;;3.44;91.72;103375.91;5072960;28;20101;-44
2022/01/25 03:39:13;;;;;;;54.83;27.98;;;;;;;3.44;91.34;103371.56;5074139;28;20044;-48
2022/01/25 03:41:42;;;;;;;55.65;27.75;;;;;;;3.45;91.04;103373.31;5074010;28;20052;-58
2022/01/25 03:44:11;;;;;;;58.72;28.35;;;;;;;3.45;90.86;103368.13;5074445;28;20511;-56
2022/01/25 03:46:52;;;;;;;52.63;26.80;;;;;;;3.44;89.86;103366.38;5074416;28;20056;-50
2022/01/25 03:52:07;;;;;;;61.47;29.48;;;;;;;3.41;90.37;103366.38;5074147;28;20131;-48
2022/01/25 03:54:35;;;;;;;61.28;29.50;;;;;;;3.34;90.23;103367.16;5073887;28;20044;-47
2022/01/25 03:57:05;;;;;;;58.67;28.05;;;;;;;3.27;91.53;103365.41;5073913;28;20518;-50
2022/01/25 03:59:34;;;;;;;59.10;28.65;;;;;;;3.28;91.63;103359.34;5073520;28;20068;-49
2022/01/25 04:02:02;;;;;;;56.47;28.58;;;;;;;3.25;90.98;103365.41;5073823;28;20049;-45
2022/01/25 04:04:31;;;;;;;58.30;29.52;;;;;;;3.33;90.38;103361.09;5072490;28;20083;-58
2022/01/25 04:07:07;;;;;;;61.10;29.13;;;;;;;3.40;89.92;103356.81;5072530;28;20059;-58
2022/01/25 04:09:36;;;;;;;55.70;27.92;;;;;;;3.43;90.06;103366.38;5069929;28;20057;-58
2022/01/25 04:12:07;;;;;;;59.70;28.00;;;;;;;3.46;89.77;103363.78;5072609;28;20063;-57
2022/01/25 04:14:36;;;;;;;60.92;27.98;;;;;;;3.33;90.23;103365.44;5073475;28;20082;-44
2022/01/25 04:17:08;;;;;;;58.97;28.30;;;;;;;3.35;90.60;103363.72;5073659;28;20052;-58
2022/01/25 04:19:40;;;;;;;57.33;28.75;;;;;;;3.36;90.46;103361.13;5073367;28;20098;-57
2022/01/25 04:25:06;;;;;;;55.80;28.05;;;;;;;3.35;90.56;103361.13;5072237;28;20052;-46
2022/01/25 04:27:36;;;;;;;60.78;29.63;;;;;;;3.36;90.63;103365.47;5073323;28;20049;-49
2022/01/25 04:30:06;;;;;;;60.47;27.42;;;;;;;3.37;90.43;103362.00;5073209;28;20052;-50
2022/01/25 04:32:42;;;;;;;56.40;28.30;;;;;;;3.27;90.76;103360.19;5073517;28;20415;-47
2022/01/25 04:35:24;;;;;;;57.00;27.90;;;;;;;3.33;90.77;103353.31;5073301;28;20509;-44
2022/01/25 04:49:06;;;;;;;57.92;28.77;;;;;;;3.31;91.42;103359.34;5073031;28;20483;-50
2022/01/25 04:51:47;;;;;;;63.33;29.45;;;;;;;3.31;90.99;103351.56;5072907;28;20059;-48
2022/01/25 04:54:25;;;;;;;62.33;28.45;;;;;;;3.28;91.47;103343.75;5072511;28;20051;-58
2022/01/25 04:57:04;;;;;;;59.80;28.80;;;;;;;3.28;91.78;103342.00;5069054;28;20079;-58
2022/01/25 04:59:39;;;;;;;57.85;27.63;;;;;;;3.31;93.03;103348.94;5070521;28;20060;-45
2022/01/25 05:02:12;;;;;;;58.85;28.67;;;;;;;3.29;93.66;103345.50;5072926;28;20104;-44
2022/01/25 05:04:46;;;;;;;56.97;28.00;;;;;;;3.30;93.45;103352.41;5072721;28;20600;-49
2022/01/25 05:07:27;;;;;;;63.75;29.67;;;;;;;3.24;92.00;103355.00;5071287;28;20048;-47
2022/01/25 05:09:57;;;;;;;61.70;29.58;;;;;;;3.26;91.54;103356.75;5068813;28;20610;-45
2022/01/25 05:12:36;;;;;;;63.88;28.90;;;;;;;3.21;91.30;103354.09;5071048;28;20040;-44
2022/01/25 05:15:39;;;;;;;63.83;29.90;;;;;;;3.20;90.37;103360.19;5072382;28;20506;-46
2022/01/25 05:18:13;;;;;;;64.13;29.83;;;;;;;3.26;89.99;103354.16;5072281;28;20438;-58
2022/01/25 05:23:28;;;;;;;62.72;29.13;;;;;;;3.28;89.92;103359.34;5072215;28;20051;-49
2022/01/25 05:25:56;;;;;;;61.97;30.13;;;;;;;3.27;89.83;103365.41;5069856;28;20044;-48
2022/01/25 05:28:24;;;;;;;58.70;29.63;;;;;;;3.30;89.71;103357.59;5068650;28;20053;-47
2022/01/25 05:30:53;;;;;;;62.20;29.08;;;;;;;3.29;90.76;103367.16;5068553;28;20040;-58
2022/01/25 05:33:21;;;;;;;62.33;28.70;;;;;;;3.29;90.83;103359.34;5069176;28;20040;-56
2022/01/25 05:35:49;;;;;;;63.38;30.13;;;;;;;3.28;90.99;103365.41;5068504;28;20068;-44
2022/01/25 05:38:17;;;;;;;61.65;30.10;;;;;;;3.29;90.82;103366.28;5071793;28;20056;-48
2022/01/25 05:40:49;;;;;;;64.25;32.08;;;;;;;3.30;89.94;103368.00;5072241;28;20521;-48
2022/01/25 05:46:12;;;;;;;62.90;28.33;;;;;;;3.29;89.55;103358.50;5067970;28;20139;-48
2022/01/25 05:48:40;;;;;;;61.70;29.25;;;;;;;3.22;91.96;103353.25;5068869;28;20083;-49
2022/01/25 05:51:09;;;;;;;61.55;29.42;;;;;;;3.26;91.44;103346.34;5072373;28;20102;-50
2022/01/25 05:53:40;;;;;;;64.70;30.08;;;;;;;3.23;92.33;103351.50;5072219;28;20044;-47
2022/01/25 05:56:08;;;;;;;62.33;30.15;;;;;;;3.25;91.87;103355.00;5072166;28;20048;-48
2022/01/25 05:58:36;;;;;;;62.88;30.48;;;;;;;3.19;91.58;103355.84;5069085;28;20087;-46
2022/01/25 06:01:05;;;;;;;64.05;29.45;;;;;;;3.11;91.53;103348.81;5066831;28;20562;-46
2022/01/25 06:03:34;;;;;;;70.93;30.35;;;;;;;3.16;91.83;103348.03;5072163;28;20036;-46
2022/01/25 06:06:02;;;;;;;63.33;30.38;;;;;;;3.19;91.70;103341.94;5070447;28;20810;-47
2022/01/25 06:08:30;;;;;;;60.97;28.70;;;;;;;3.17;90.72;103335.88;5068198;28;20040;-46
2022/01/25 06:10:58;;;;;;;67.05;31.67;;;;;;;3.19;91.03;103353.22;5070900;28;20045;-47
2022/01/25 06:13:26;;;;;;;61.70;28.92;;;;;;;3.19;90.85;103345.44;5071951;28;20051;-49
2022/01/25 06:15:54;;;;;;;62.53;28.73;;;;;;;3.19;91.14;103350.63;5066786;28;20072;-46
2022/01/25 06:18:24;;;;;;;62.70;30.30;;;;;;;3.24;89.86;103347.19;5069766;28;20106;-49
2022/01/25 06:20:52;;;;;;;65.82;29.55;;;;;;;3.22;90.78;103349.78;5075758;28;20053;-47
2022/01/25 06:23:20;;;;;;;66.25;30.83;;;;;;;3.22;89.11;103345.44;5073663;28;20388;-46
2022/01/25 06:25:48;;;;;;;59.58;28.05;;;;;;;3.23;89.02;103348.91;5071954;28;20049;-47
2022/01/25 06:28:17;;;;;;;63.67;29.35;;;;;;;3.21;90.39;103343.69;5075379;28;20505;-45
2022/01/25 06:30:45;;;;;;;68.28;30.50;;;;;;;3.20;91.46;103349.78;5075591;28;20449;-48
2022/01/25 06:33:14;;;;;;;63.08;29.35;;;;;;;3.24;90.91;103336.78;5075725;28;20055;-49
2022/01/25 06:35:45;;;;;;;64.30;29.00;;;;;;;3.23;90.18;103346.28;5075740;28;20048;-50
2022/01/25 06:38:13;;;;;;;66.20;30.23;;;;;;;3.18;90.45;103351.47;5075606;28;20565;-48
2022/01/25 06:40:41;;;;;;;63.10;28.80;;;;;;;3.22;89.61;103348.03;5075039;28;20102;-46
2022/01/25 06:43:10;;;;;;;73.80;32.15;;;;;;;3.16;89.52;103345.41;5075237;28;20044;-46
2022/01/25 06:45:40;;;;;;;60.20;28.48;;;;;;;3.20;89.81;103354.09;5075430;28;20107;-48
2022/01/25 06:48:10;;;;;;;66.60;31.40;;;;;;;3.06;90.20;103348.81;5075088;28;20044;-48
2022/01/25 06:50:38;;;;;;;67.68;30.65;;;;;;;3.03;90.07;103352.25;5075190;28;20113;-48
2022/01/25 06:53:08;;;;;;;64.22;30.33;;;;;;;3.10;90.04;103352.31;5074693;28;20040;-47
2022/01/25 06:55:40;;;;;;;68.82;30.10;;;;;;;3.11;89.78;103346.22;5072044;28;20700;-46
2022/01/25 06:58:09;;;;;;;65.40;30.27;;;;;;;3.18;90.62;103354.09;5070594;28;20056;-50
2022/01/25 07:00:37;;;;;;;69.97;31.23;;;;;;;3.21;90.05;103348.91;5071906;28;20051;-48
2022/01/25 07:03:06;;;;;;;64.47;30.88;;;;;;;3.18;90.34;103354.09;5074654;28;20076;-49
2022/01/25 07:05:37;;;;;;;62.63;28.00;;;;;;;3.16;90.83;103355.81;5074853;28;20119;-50
2022/01/25 07:08:06;;;;;;;63.30;29.58;;;;;;;3.09;91.27;103356.63;5074789;28;20511;-48
2022/01/25 07:10:35;;;;;;;65.63;29.83;;;;;;;3.05;91.25;103362.66;5074889;28;20098;-44
2022/01/25 07:13:03;;;;;;;66.70;29.65;;;;;;;3.09;91.18;103355.75;5072682;28;20618;-45
2022/01/25 07:15:32;;;;;;;62.55;29.05;;;;;;;3.11;90.88;103356.63;5068501;28;20106;-47
2022/01/25 07:18:00;;;;;;;67.07;31.60;;;;;;;3.14;90.23;103360.13;5073713;28;20037;-49
2022/01/25 07:20:28;;;;;;;67.18;30.13;;;;;;;3.14;90.96;103367.06;5074677;28;20503;-49
2022/01/25 07:22:56;;;;;;;61.70;29.98;;;;;;;3.14;91.85;103370.53;5073086;28;20045;-46
2022/01/25 07:25:26;;;;;;;65.45;29.17;;;;;;;3.14;92.38;103365.34;5071658;28;20053;-44
2022/01/25 07:27:55;;;;;;;65.38;29.65;;;;;;;3.15;92.18;103363.59;5070423;28;20049;-47
2022/01/25 07:30:23;;;;;;;60.92;29.92;;;;;;;3.15;90.92;103361.88;5072941;28;20075;-45
2022/01/25 07:32:51;;;;;;;66.70;30.95;;;;;;;3.16;91.24;103361.03;5073376;28;20036;-47
2022/01/25 07:35:34;;;;;;;67.97;29.63;;;;;;;3.18;91.65;103366.22;5069324;28;20515;-49
2022/01/25 07:38:05;;;;;;;62.58;30.05;;;;;;;3.19;93.10;103365.34;5071873;28;20460;-48
2022/01/25 07:40:37;;;;;;;67.20;31.45;;;;;;;3.18;93.41;103367.09;5073591;28;20067;-50
2022/01/25 07:43:09;;;;;;;60.28;28.48;;;;;;;3.20;93.39;103368.00;5074245;28;20105;-48
2022/01/25 07:45:39;;;;;;;66.83;30.80;;;;;;;3.18;94.03;103367.09;5072439;28;20414;-47
2022/01/25 07:48:13;;;;;;;63.63;29.57;;;;;;;3.18;94.16;103371.44;5068627;28;20061;-45
2022/01/25 07:50:42;;;;;;;65.97;29.77;;;;;;;3.13;92.13;103371.38;5072143;28;20041;-47
2022/01/25 07:53:10;;;;;;;61.85;30.33;;;;;;;3.19;92.49;103386.16;5073950;28;20049;-48
2022/01/25 07:55:38;;;;;;;65.75;30.67;;;;;;;3.18;93.52;103384.44;5073972;28;20056;-48
2022/01/25 07:58:07;;;;;;;64.85;31.08;;;;;;;3.17;91.60;103378.34;5073848;28;20487;-46
2022/01/25 08:00:36;;;;;;;66.95;31.50;;;;;;;3.20;92.07;103377.50;5073999;28;20041;-46
2022/01/25 08:03:04;;;;;;;67.07;31.58;;;;;;;3.18;93.49;103374.03;5073471;28;20517;-49
2022/01/25 08:05:32;;;;;;;64.28;30.73;;;;;;;3.16;93.24;103378.34;5073109;28;20554;-47
2022/01/25 08:08:10;;;;;;;62.83;30.27;;;;;;;3.18;93.15;103380.09;5070108;28;20059;-49
2022/01/25 08:10:51;;;;;;;61.80;28.67;;;;;;;3.21;92.61;103380.09;5069226;28;20083;-49
2022/01/25 08:13:27;;;;;;;62.95;28.90;;;;;;;3.16;92.39;103363.63;5073641;28;20036;-48
2022/01/25 08:15:55;;;;;;;61.90;28.77;;;;;;;3.19;92.99;103367.94;5073740;28;20040;-46
2022/01/25 08:18:34;;;;;;;67.10;29.38;;;;;;;3.21;93.17;103374.91;5073374;28;20053;-49
2022/01/25 08:21:04;;;;;;;62.20;29.15;;;;;;;3.21;93.21;103367.09;5073476;28;20136;-47
2022/01/25 08:23:32;;;;;;;62.95;29.67;;;;;;;3.19;93.30;103376.63;5073011;28;20044;-49
2022/01/25 08:26:20;;;;;;;64.55;29.23;;;;;;;3.21;92.32;103371.44;5070711;28;20087;-50
2022/01/25 08:28:54;;;;;;;65.85;30.80;;;;;;;3.20;92.27;103375.78;5073122;28;20127;-48
2022/01/25 08:31:31;;;;;;;62.15;30.40;;;;;;;3.21;92.62;103369.69;5073388;28;20049;-47
2022/01/25 08:34:01;;;;;;;63.58;29.88;;;;;;;3.13;92.47;103387.00;5073690;28;20064;-49
2022/01/25 08:36:31;;;;;;;66.65;29.55;;;;;;;3.08;92.69;103385.22;5073136;28;20045;-49
2022/01/25 08:39:00;;;;;;;63.67;31.00;;;;;;;3.02;93.13;103388.66;5072900;28;20060;-48
2022/01/25 08:41:33;;;;;;;66.22;30.33;;;;;;;3.18;92.16;103379.25;5072510;28;20036;-46
2022/01/25 08:44:06;;;;;;;64.35;29.02;;;;;;;3.07;92.98;103383.47;5072998;28;20513;-50
2022/01/25 08:46:48;;;;;;;65.07;30.15;;;;;;;3.07;93.29;103391.28;5069697;28;20048;-47
2022/01/25 08:49:21;;;;;;;66.25;29.92;;;;;;;3.09;92.45;103385.22;5070215;28;20053;-48
2022/01/25 08:52:05;;;;;;;60.65;28.58;;;;;;;3.11;92.49;103393.94;5069076;28;20517;-48
2022/01/25 08:54:36;;;;;;;63.17;30.45;;;;;;;3.01;93.13;103386.91;5072755;28;20477;-47
2022/01/25 08:57:06;;;;;;;64.47;30.35;;;;;;;3.07;93.37;103380.88;5072947;28;20147;-48
2022/01/25 08:59:36;;;;;;;68.93;32.50;;;;;;;3.14;92.93;103386.13;5071171;28;20408;-48
2022/01/25 09:02:05;;;;;;;67.18;30.85;;;;;;;3.17;93.82;103382.69;5067432;28;20583;-48
2022/01/25 09:04:33;;;;;;;65.38;31.58;;;;;;;3.15;93.30;103387.88;5069105;28;20367;-49
2022/01/25 09:07:01;;;;;;;65.68;30.27;;;;;;;3.12;94.38;103392.19;5072668;28;20048;-46
2022/01/25 09:09:30;;;;;;;65.18;29.95;;;;;;;3.09;94.60;103397.38;5072626;28;20068;-47
2022/01/25 09:11:58;;;;;;;65.15;29.45;;;;;;;3.07;93.84;103392.16;5072554;28;20044;-46
2022/01/25 09:14:26;;;;;;;63.13;30.23;;;;;;;3.15;93.70;103400.88;5072519;28;20446;-48
2022/01/25 09:16:55;;;;;;;68.28;31.10;;;;;;;3.21;93.31;103406.13;5067766;28;20138;-48
2022/01/25 09:19:24;;;;;;;63.85;30.70;;;;;;;3.22;93.80;103399.19;5068873;28;20052;-47
2022/01/25 09:21:52;;;;;;;61.03;28.92;;;;;;;3.20;93.39;103404.41;5072654;28;20537;-45
2022/01/25 09:24:20;;;;;;;63.38;29.67;;;;;;;3.22;93.48;103409.59;5070282;28;20048;-44
2022/01/25 09:26:48;;;;;;;66.32;31.92;;;;;;;3.24;93.29;103412.22;5068705;28;20056;-46
2022/01/25 09:29:16;;;;;;;64.38;31.77;;;;;;;3.24;92.35;103414.81;5071223;28;20048;-50
2022/01/25 09:31:44;;;;;;;65.75;30.88;;;;;;;3.22;91.74;103413.06;5071741;28;20059;-49
2022/01/25 09:34:15;;;;;;;66.90;30.42;;;;;;;3.30;91.94;103410.53;5072070;28;20510;-49
2022/01/25 09:36:43;;;;;;;63.38;29.65;;;;;;;3.32;92.48;103414.00;5072234;28;20115;-50
2022/01/25 09:39:19;;;;;;;63.50;28.95;;;;;;;3.33;92.32;103410.53;5068851;28;20048;-49
2022/01/25 09:41:48;;;;;;;63.72;29.25;;;;;;;3.36;92.04;103407.09;5068119;28;20048;-50
2022/01/25 09:44:16;;;;;;;69.50;31.38;;;;;;;3.29;92.67;103416.59;5071983;28;20474;-49
2022/01/25 09:46:45;;;;;;;70.78;32.08;;;;;;;3.25;92.79;103408.75;5071911;28;20052;-47
2022/01/25 09:49:16;;;;;;;65.05;30.30;;;;;;;3.31;93.04;103413.97;5072141;28;20052;-47
2022/01/25 09:51:45;;;;;;;63.85;29.33;;;;;;;3.39;92.77;103407.09;5072191;28;20056;-51
2022/01/25 09:54:13;;;;;;;62.20;29.02;;;;;;;3.40;92.72;103416.66;5076491;28;20066;-48
2022/01/25 09:56:42;;;;;;;70.78;31.70;;;;;;;3.47;92.14;103417.56;5078465;28;20045;-50
2022/01/25 09:59:10;;;;;;;63.25;29.65;;;;;;;3.32;92.19;103415.72;5073666;28;20059;-48
2022/01/25 10:01:44;;;;;;;62.40;28.42;;;;;;;3.37;92.16;103424.44;5073588;28;20053;-47
2022/01/25 10:04:30;;;;;;;65.45;29.10;;;;;;;3.37;92.34;103417.50;5078984;28;20414;-50
2022/01/25 10:07:04;;;;;;;60.75;28.08;;;;;;;3.39;91.98;103425.31;5074110;28;20048;-46
2022/01/25 10:09:33;;;;;;;61.25;28.95;;;;;;;3.40;91.67;103431.41;5074863;28;20040;-48
2022/01/25 10:12:17;;;;;;;66.68;29.67;;;;;;;3.44;91.78;103420.16;5078607;28;20086;-47
2022/01/25 10:14:54;;;;;;;62.67;29.02;;;;;;;3.49;90.94;103416.72;5074071;28;20106;-47
2022/01/25 10:17:34;;;;;;;62.38;28.75;;;;;;;3.53;90.99;103418.47;5073579;28;20048;-48
2022/01/25 10:20:04;;;;;;;67.82;30.67;;;;;;;3.55;90.91;103413.28;5078639;28;20051;-49
2022/01/25 10:22:42;;;;;;;61.80;29.20;;;;;;;3.57;90.85;103418.47;5078492;28;20410;-46
2022/01/25 10:25:10;;;;;;;61.63;28.77;;;;;;;3.58;90.93;103422.81;5075415;28;20055;-47
2022/01/25 10:28:03;;;;;;;66.88;30.52;;;;;;;3.60;89.73;103424.56;5074733;28;20862;-48
2022/01/25 10:30:33;;;;;;;62.92;29.55;;;;;;;3.57;90.46;103419.34;5078415;28;20494;-45
2022/01/25 10:33:02;;;;;;;62.75;30.42;;;;;;;3.59;91.58;103427.19;5078444;28;20044;-47
2022/01/25 10:35:31;;;;;;;62.42;29.33;;;;;;;3.56;92.14;103425.41;5078434;28;20397;-48
2022/01/25 10:37:59;;;;;;;65.45;30.02;;;;;;;3.54;91.01;103419.31;5078257;28;20082;-48
2022/01/25 10:40:38;;;;;;;65.13;29.25;;;;;;;3.57;91.31;103424.53;5076873;28;20143;-47
2022/01/25 10:43:07;;;;;;;58.53;29.35;;;;;;;3.53;90.98;103426.28;5078280;28;20437;-45
2022/01/25 10:45:35;;;;;;;62.08;28.92;;;;;;;3.62;90.50;103424.59;5078450;28;20044;-47
2022/01/25 10:48:04;;;;;;;61.08;28.15;;;;;;;3.61;90.02;103430.63;5078517;28;20060;-45
2022/01/25 10:50:35;;;;;;;67.38;28.50;;;;;;;3.64;89.58;103422.84;5074525;28;20052;-47
2022/01/25 10:53:06;;;;;;;64.47;29.23;;;;;;;3.64;89.70;103428.94;5074414;28;20572;-45
2022/01/25 10:55:39;;;;;;;66.97;29.42;;;;;;;3.58;89.08;103431.50;5077011;28;20059;-48
2022/01/25 10:58:09;;;;;;;64.40;27.75;;;;;;;3.41;91.08;103435.72;5075276;28;20398;-50
2022/01/25 11:00:42;;;;;;;64.00;28.20;;;;;;;3.53;90.61;103435.78;5070746;28;20084;-51
2022/01/25 11:03:11;;;;;;;63.58;27.90;;;;;;;3.54;91.54;103430.63;5077114;28;20044;-45
2022/01/25 11:05:44;;;;;;;63.78;28.42;;;;;;;3.55;90.47;103434.94;5075060;28;20132;-46
2022/01/25 11:08:18;;;;;;;65.03;28.70;;;;;;;3.64;90.40;103438.47;5074677;28;20049;-47
2022/01/25 11:10:52;;;;;;;67.07;30.25;;;;;;;3.65;91.05;103438.47;5074981;28;20064;-49
2022/01/25 11:13:35;;;;;;;60.28;28.80;;;;;;;3.62;90.83;103442.81;5071944;28;20529;-46
2022/01/25 11:16:06;;;;;;;66.43;29.92;;;;;;;3.63;90.78;103440.19;5068818;28;20051;-49
2022/01/25 11:18:36;;;;;;;64.93;30.10;;;;;;;3.61;90.96;103436.69;5073521;28;20106;-50
2022/01/25 11:21:10;;;;;;;66.95;30.40;;;;;;;3.60;90.96;103435.00;5070403;28;20135;-50
2022/01/25 11:23:41;;;;;;;62.10;28.27;;;;;;;3.62;90.58;103438.44;5072765;28;20041;-48
2022/01/25 11:26:12;;;;;;;65.25;30.77;;;;;;;3.70;91.48;103441.97;5074668;28;20398;-47
2022/01/25 11:28:42;;;;;;;58.70;26.92;;;;;;;3.68;90.92;103437.59;5074369;28;20491;-47
2022/01/25 11:31:14;;;;;;;60.30;28.45;;;;;;;3.62;90.36;103432.38;5074665;28;20072;-47
2022/01/25 11:33:47;;;;;;;65.68;30.52;;;;;;;3.64;90.21;103434.16;5074384;28;20052;-48
2022/01/25 11:36:16;;;;;;;;;;;;;;;3.67;90.24;103433.28;5075131;28;20054;-45
2022/01/25 11:38:48;;;;;;;59.92;26.23;;;;;;;3.67;89.83;103426.34;5074220;28;19927;-48
2022/01/25 11:41:19;;;;;;;61.03;27.15;;;;;;;3.71;89.10;103428.09;5074761;28;20069;-49
2022/01/25 11:44:07;;;;;;;58.95;27.30;;;;;;;3.65;89.68;103422.00;5074285;28;20052;-49
2022/01/25 11:46:35;;;;;;;62.17;28.05;;;;;;;3.70;90.56;103422.88;5070193;28;20043;-51
2022/01/25 11:49:07;;;;;;;57.22;27.80;;;;;;;3.56;90.22;103422.81;5069995;28;20052;-49
2022/01/25 11:51:36;;;;;;;64.55;28.98;;;;;;;3.57;90.56;103415.88;5074175;28;20052;-48
2022/01/25 11:54:05;;;;;;;60.83;27.30;;;;;;;3.62;91.00;103419.38;5074113;28;20506;-47
2022/01/25 11:56:33;;;;;;;60.97;27.23;;;;;;;3.55;90.74;103416.72;5073962;28;20418;-50
2022/01/25 11:59:01;;;;;;;57.85;26.15;;;;;;;3.55;90.07;103411.53;5073891;28;20060;-46
2022/01/25 12:01:30;;;;;;;62.00;27.42;;;;;;;3.68;90.27;103416.78;5074009;28;20086;-48
2022/01/25 12:04:00;;;;;;;61.95;28.08;;;;;;;3.71;89.43;103409.03;5072547;28;20052;-47
2022/01/25 12:06:34;;;;;;;59.53;27.70;;;;;;;3.71;89.21;103402.06;5073879;28;20052;-47
2022/01/25 12:09:15;;;;;;;62.67;27.30;;;;;;;3.76;89.62;103404.69;5071392;28;20044;-45
2022/01/25 12:11:47;;;;;;;56.67;25.98;;;;;;;3.78;89.89;103397.75;5069191;28;20043;-46
2022/01/25 12:14:32;;;;;;;63.43;26.73;;;;;;;3.86;90.18;103392.59;5073680;28;20048;-50
2022/01/25 12:17:12;;;;;;;60.38;27.40;;;;;;;3.84;90.27;103392.56;5071922;28;20573;-47
2022/01/25 12:19:44;;;;;;;57.13;26.67;;;;;;;3.77;89.88;103396.00;5070870;28;20051;-47
2022/01/25 12:22:33;;;;;;;59.38;27.60;;;;;;;3.79;91.03;103377.78;5068691;28;20048;-46
2022/01/25 12:25:11;;;;;;;54.78;25.23;;;;;;;3.84;89.36;103392.56;5073168;28;20072;-45
2022/01/25 12:27:45;;;;;;;58.00;26.08;;;;;;;3.83;89.93;103388.25;5072878;28;20048;-46
2022/01/25 12:30:16;;;;;;;59.45;27.30;;;;;;;3.84;90.08;103383.88;5073002;28;20044;-45
2022/01/25 12:33:00;;;;;;;57.78;27.45;;;;;;;3.76;89.38;103383.84;5069284;28;20044;-47
2022/01/25 12:35:40;;;;;;;53.85;25.95;;;;;;;3.77;89.22;103379.53;5069233;28;20118;-45
2022/01/25 12:38:10;;;;;;;61.20;26.50;;;;;;;3.53;89.99;103382.03;5073480;28;20391;-49
2022/01/25 12:40:52;;;;;;;58.60;27.50;;;;;;;3.52;90.10;103380.28;5073169;28;20044;-50
2022/01/25 12:43:22;;;;;;;53.15;26.13;;;;;;;3.56;89.59;103381.19;5072569;28;20124;-46